sensor_id;sensor_type;location;lat;lon;timestamp;P1;durP1;ratioP1;P2;durP2;ratioP2
67640;SDS011;54434;50.096;20.082;2024-01-30T00:02:02;116.10;;;43.30;;
67640;SDS011;54434;50.096;20.082;2024-01-30T00:04:56;117.20;;;44.20;;
67640;SDS011;54434;50.096;20.082;2024-01-30T00:07:51;127.80;;;43.30;;
67640;SDS011;54434;50.096;20.082;2024-01-30T00:10:46;123.70;;;44.50;;
67640;SDS011;54434;50.096;20.082;2024-01-30T00:13:40;118.50;;;42.20;;
67640;SDS011;54434;50.096;20.082;2024-01-30T00:16:35;134.60;;;43.90;;
67640;SDS011;54434;50.096;20.082;2024-01-30T00:19:29;124.20;;;45.30;;
67640;SDS011;54434;50.096;20.082;2024-01-30T00:22:24;131.30;;;43.70;;
67640;SDS011;54434;50.096;20.082;2024-01-30T00:25:18;128.60;;;43.60;;
67640;SDS011;54434;50.096;20.082;2024-01-30T00:28:13;129.20;;;45.70;;
67640;SDS011;54434;50.096;20.082;2024-01-30T00:31:08;131.30;;;44.80;;
67640;SDS011;54434;50.096;20.082;2024-01-30T00:34:03;134.80;;;46.00;;
67640;SDS011;54434;50.096;20.082;2024-01-30T00:36:58;131.60;;;44.60;;
67640;SDS011;54434;50.096;20.082;2024-01-30T00:39:52;137.70;;;45.90;;
67640;SDS011;54434;50.096;20.082;2024-01-30T00:42:46;114.40;;;43.50;;
67640;SDS011;54434;50.096;20.082;2024-01-30T00:45:41;128.90;;;44.60;;
67640;SDS011;54434;50.096;20.082;2024-01-30T00:48:37;130.60;;;43.20;;
67640;SDS011;54434;50.096;20.082;2024-01-30T00:51:31;125.30;;;44.60;;
67640;SDS011;54434;50.096;20.082;2024-01-30T00:54:26;116.90;;;43.40;;
67640;SDS011;54434;50.096;20.082;2024-01-30T00:57:20;125.40;;;43.70;;
67640;SDS011;54434;50.096;20.082;2024-01-30T01:00:16;111.90;;;43.40;;
67640;SDS011;54434;50.096;20.082;2024-01-30T01:03:12;118.10;;;44.80;;
67640;SDS011;54434;50.096;20.082;2024-01-30T01:06:07;119.90;;;42.10;;
67640;SDS011;54434;50.096;20.082;2024-01-30T01:09:02;130.80;;;45.00;;
67640;SDS011;54434;50.096;20.082;2024-01-30T01:11:56;117.90;;;42.30;;
67640;SDS011;54434;50.096;20.082;2024-01-30T01:14:51;122.10;;;41.40;;
67640;SDS011;54434;50.096;20.082;2024-01-30T01:17:46;111.00;;;41.40;;
67640;SDS011;54434;50.096;20.082;2024-01-30T01:20:40;102.30;;;40.10;;
67640;SDS011;54434;50.096;20.082;2024-01-30T01:23:34;111.30;;;39.90;;
67640;SDS011;54434;50.096;20.082;2024-01-30T01:26:28;113.50;;;41.20;;
67640;SDS011;54434;50.096;20.082;2024-01-30T01:29:23;114.40;;;40.50;;
67640;SDS011;54434;50.096;20.082;2024-01-30T01:32:19;109.90;;;40.20;;
67640;SDS011;54434;50.096;20.082;2024-01-30T01:35:14;114.70;;;40.00;;
67640;SDS011;54434;50.096;20.082;2024-01-30T01:38:09;108.90;;;39.40;;
67640;SDS011;54434;50.096;20.082;2024-01-30T01:41:03;106.20;;;40.70;;
67640;SDS011;54434;50.096;20.082;2024-01-30T01:43:58;104.70;;;39.30;;
67640;SDS011;54434;50.096;20.082;2024-01-30T01:46:53;98.80;;;38.40;;
67640;SDS011;54434;50.096;20.082;2024-01-30T01:49:49;105.70;;;38.20;;
67640;SDS011;54434;50.096;20.082;2024-01-30T01:52:44;101.10;;;39.30;;
67640;SDS011;54434;50.096;20.082;2024-01-30T01:55:40;109.20;;;39.50;;
67640;SDS011;54434;50.096;20.082;2024-01-30T01:58:35;103.90;;;38.10;;
67640;SDS011;54434;50.096;20.082;2024-01-30T02:01:30;111.10;;;37.90;;
67640;SDS011;54434;50.096;20.082;2024-01-30T02:04:25;109.80;;;38.70;;
67640;SDS011;54434;50.096;20.082;2024-01-30T02:07:21;98.80;;;36.90;;
67640;SDS011;54434;50.096;20.082;2024-01-30T02:10:17;103.80;;;40.00;;
67640;SDS011;54434;50.096;20.082;2024-01-30T02:13:11;115.30;;;41.50;;
67640;SDS011;54434;50.096;20.082;2024-01-30T02:16:07;125.30;;;45.40;;
67640;SDS011;54434;50.096;20.082;2024-01-30T02:19:01;130.40;;;47.80;;
67640;SDS011;54434;50.096;20.082;2024-01-30T02:21:56;132.60;;;48.20;;
67640;SDS011;54434;50.096;20.082;2024-01-30T02:24:50;126.00;;;45.70;;
67640;SDS011;54434;50.096;20.082;2024-01-30T02:27:44;123.40;;;44.90;;
67640;SDS011;54434;50.096;20.082;2024-01-30T02:30:39;140.80;;;48.40;;
67640;SDS011;54434;50.096;20.082;2024-01-30T02:33:35;130.20;;;46.70;;
67640;SDS011;54434;50.096;20.082;2024-01-30T02:36:29;133.70;;;45.30;;
67640;SDS011;54434;50.096;20.082;2024-01-30T02:39:24;125.20;;;45.50;;
67640;SDS011;54434;50.096;20.082;2024-01-30T02:42:19;116.80;;;44.70;;
67640;SDS011;54434;50.096;20.082;2024-01-30T02:45:15;126.80;;;44.60;;
67640;SDS011;54434;50.096;20.082;2024-01-30T02:48:10;104.50;;;39.40;;
67640;SDS011;54434;50.096;20.082;2024-01-30T02:51:04;113.40;;;40.40;;
67640;SDS011;54434;50.096;20.082;2024-01-30T02:53:59;119.20;;;44.50;;
67640;SDS011;54434;50.096;20.082;2024-01-30T02:56:53;120.00;;;45.60;;
67640;SDS011;54434;50.096;20.082;2024-01-30T02:59:48;120.70;;;44.30;;
67640;SDS011;54434;50.096;20.082;2024-01-30T03:02:42;114.20;;;43.50;;
67640;SDS011;54434;50.096;20.082;2024-01-30T03:05:37;111.50;;;43.20;;
67640;SDS011;54434;50.096;20.082;2024-01-30T03:08:31;118.40;;;42.30;;
67640;SDS011;54434;50.096;20.082;2024-01-30T03:11:26;110.60;;;41.40;;
67640;SDS011;54434;50.096;20.082;2024-01-30T03:14:21;112.00;;;40.60;;
67640;SDS011;54434;50.096;20.082;2024-01-30T03:17:15;103.20;;;38.80;;
67640;SDS011;54434;50.096;20.082;2024-01-30T03:20:11;92.80;;;36.10;;
67640;SDS011;54434;50.096;20.082;2024-01-30T03:23:05;95.30;;;36.50;;
67640;SDS011;54434;50.096;20.082;2024-01-30T03:26:01;91.50;;;35.60;;
67640;SDS011;54434;50.096;20.082;2024-01-30T03:28:58;79.70;;;34.60;;
67640;SDS011;54434;50.096;20.082;2024-01-30T03:31:52;90.80;;;33.50;;
67640;SDS011;54434;50.096;20.082;2024-01-30T03:34:47;91.40;;;33.90;;
67640;SDS011;54434;50.096;20.082;2024-01-30T03:37:42;94.90;;;33.90;;
67640;SDS011;54434;50.096;20.082;2024-01-30T03:40:36;94.50;;;35.10;;
67640;SDS011;54434;50.096;20.082;2024-01-30T03:43:30;87.60;;;34.40;;
67640;SDS011;54434;50.096;20.082;2024-01-30T03:46:25;89.40;;;33.80;;
67640;SDS011;54434;50.096;20.082;2024-01-30T03:49:19;97.50;;;33.80;;
67640;SDS011;54434;50.096;20.082;2024-01-30T03:52:16;78.90;;;31.70;;
67640;SDS011;54434;50.096;20.082;2024-01-30T03:55:11;92.20;;;33.20;;
67640;SDS011;54434;50.096;20.082;2024-01-30T03:58:06;94.10;;;34.70;;
67640;SDS011;54434;50.096;20.082;2024-01-30T04:01:02;86.40;;;33.20;;
67640;SDS011;54434;50.096;20.082;2024-01-30T04:03:56;85.30;;;34.90;;
67640;SDS011;54434;50.096;20.082;2024-01-30T04:06:51;94.60;;;32.80;;
67640;SDS011;54434;50.096;20.082;2024-01-30T04:09:45;100.30;;;35.00;;
67640;SDS011;54434;50.096;20.082;2024-01-30T04:12:39;88.10;;;32.40;;
67640;SDS011;54434;50.096;20.082;2024-01-30T04:15:34;153.80;;;53.00;;
67640;SDS011;54434;50.096;20.082;2024-01-30T04:18:29;103.60;;;37.10;;
67640;SDS011;54434;50.096;20.082;2024-01-30T04:21:25;88.60;;;33.10;;
67640;SDS011;54434;50.096;20.082;2024-01-30T04:24:19;89.30;;;34.00;;
67640;SDS011;54434;50.096;20.082;2024-01-30T04:27:14;99.30;;;34.90;;
67640;SDS011;54434;50.096;20.082;2024-01-30T04:30:10;88.70;;;32.80;;
67640;SDS011;54434;50.096;20.082;2024-01-30T04:33:05;86.80;;;34.20;;
67640;SDS011;54434;50.096;20.082;2024-01-30T04:36:00;127.60;;;44.20;;
67640;SDS011;54434;50.096;20.082;2024-01-30T04:38:55;115.70;;;40.70;;
67640;SDS011;54434;50.096;20.082;2024-01-30T04:41:49;104.90;;;35.30;;
67640;SDS011;54434;50.096;20.082;2024-01-30T04:44:43;98.40;;;37.10;;
67640;SDS011;54434;50.096;20.082;2024-01-30T04:47:37;105.30;;;39.10;;
67640;SDS011;54434;50.096;20.082;2024-01-30T04:50:32;88.00;;;34.70;;
67640;SDS011;54434;50.096;20.082;2024-01-30T04:53:26;90.70;;;33.40;;
67640;SDS011;54434;50.096;20.082;2024-01-30T04:56:20;92.40;;;34.90;;
67640;SDS011;54434;50.096;20.082;2024-01-30T04:59:17;106.40;;;38.40;;
67640;SDS011;54434;50.096;20.082;2024-01-30T05:02:13;100.00;;;38.60;;
67640;SDS011;54434;50.096;20.082;2024-01-30T05:05:08;96.90;;;35.30;;
67640;SDS011;54434;50.096;20.082;2024-01-30T05:08:03;99.10;;;35.90;;
67640;SDS011;54434;50.096;20.082;2024-01-30T05:11:01;92.90;;;35.90;;
67640;SDS011;54434;50.096;20.082;2024-01-30T05:13:56;91.50;;;36.50;;
67640;SDS011;54434;50.096;20.082;2024-01-30T05:16:50;104.90;;;36.40;;
67640;SDS011;54434;50.096;20.082;2024-01-30T05:19:45;96.90;;;36.30;;
67640;SDS011;54434;50.096;20.082;2024-01-30T05:22:40;90.70;;;35.90;;
67640;SDS011;54434;50.096;20.082;2024-01-30T05:25:36;89.80;;;34.80;;
67640;SDS011;54434;50.096;20.082;2024-01-30T05:28:31;103.30;;;37.40;;
67640;SDS011;54434;50.096;20.082;2024-01-30T05:31:26;96.00;;;36.20;;
67640;SDS011;54434;50.096;20.082;2024-01-30T05:34:20;95.20;;;34.90;;
67640;SDS011;54434;50.096;20.082;2024-01-30T05:37:14;97.00;;;35.80;;
67640;SDS011;54434;50.096;20.082;2024-01-30T05:40:11;95.20;;;36.40;;
67640;SDS011;54434;50.096;20.082;2024-01-30T05:43:06;88.90;;;35.20;;
67640;SDS011;54434;50.096;20.082;2024-01-30T05:46:00;88.10;;;34.10;;
67640;SDS011;54434;50.096;20.082;2024-01-30T05:48:55;90.70;;;36.70;;
67640;SDS011;54434;50.096;20.082;2024-01-30T05:51:49;97.20;;;34.60;;
67640;SDS011;54434;50.096;20.082;2024-01-30T05:54:45;92.00;;;34.70;;
67640;SDS011;54434;50.096;20.082;2024-01-30T05:57:39;86.20;;;33.60;;
67640;SDS011;54434;50.096;20.082;2024-01-30T06:00:34;91.20;;;34.90;;
67640;SDS011;54434;50.096;20.082;2024-01-30T06:03:28;91.40;;;34.70;;
67640;SDS011;54434;50.096;20.082;2024-01-30T06:06:22;95.60;;;35.30;;
67640;SDS011;54434;50.096;20.082;2024-01-30T06:09:17;89.60;;;35.00;;
67640;SDS011;54434;50.096;20.082;2024-01-30T06:12:11;96.50;;;34.10;;
67640;SDS011;54434;50.096;20.082;2024-01-30T06:15:07;86.60;;;34.00;;
67640;SDS011;54434;50.096;20.082;2024-01-30T06:18:04;91.00;;;35.80;;
67640;SDS011;54434;50.096;20.082;2024-01-30T06:20:59;90.80;;;34.60;;
67640;SDS011;54434;50.096;20.082;2024-01-30T06:23:53;98.50;;;35.50;;
67640;SDS011;54434;50.096;20.082;2024-01-30T06:26:48;87.20;;;34.80;;
67640;SDS011;54434;50.096;20.082;2024-01-30T06:29:44;97.10;;;35.60;;
67640;SDS011;54434;50.096;20.082;2024-01-30T06:32:38;104.70;;;37.20;;
67640;SDS011;54434;50.096;20.082;2024-01-30T06:35:33;96.00;;;35.90;;
67640;SDS011;54434;50.096;20.082;2024-01-30T06:38:35;103.30;;;36.90;;
67640;SDS011;54434;50.096;20.082;2024-01-30T06:41:29;99.50;;;36.70;;
67640;SDS011;54434;50.096;20.082;2024-01-30T06:44:24;93.30;;;35.20;;
67640;SDS011;54434;50.096;20.082;2024-01-30T06:47:22;101.00;;;35.60;;
67640;SDS011;54434;50.096;20.082;2024-01-30T06:50:17;99.80;;;37.90;;
67640;SDS011;54434;50.096;20.082;2024-01-30T06:53:11;104.40;;;38.50;;
67640;SDS011;54434;50.096;20.082;2024-01-30T06:56:07;111.60;;;38.40;;
67640;SDS011;54434;50.096;20.082;2024-01-30T06:59:01;100.30;;;36.00;;
67640;SDS011;54434;50.096;20.082;2024-01-30T07:01:56;95.90;;;37.50;;
67640;SDS011;54434;50.096;20.082;2024-01-30T07:04:51;101.60;;;37.60;;
67640;SDS011;54434;50.096;20.082;2024-01-30T07:07:45;108.30;;;39.40;;
67640;SDS011;54434;50.096;20.082;2024-01-30T07:10:40;99.10;;;38.90;;
67640;SDS011;54434;50.096;20.082;2024-01-30T07:13:35;99.60;;;39.60;;
67640;SDS011;54434;50.096;20.082;2024-01-30T07:16:30;108.50;;;40.00;;
67640;SDS011;54434;50.096;20.082;2024-01-30T07:19:24;100.90;;;39.80;;
67640;SDS011;54434;50.096;20.082;2024-01-30T07:22:19;114.60;;;39.80;;
67640;SDS011;54434;50.096;20.082;2024-01-30T07:25:14;101.50;;;40.00;;
67640;SDS011;54434;50.096;20.082;2024-01-30T07:28:09;118.20;;;42.40;;
67640;SDS011;54434;50.096;20.082;2024-01-30T07:31:05;106.10;;;40.90;;
67640;SDS011;54434;50.096;20.082;2024-01-30T07:33:59;103.50;;;39.90;;
67640;SDS011;54434;50.096;20.082;2024-01-30T07:36:53;113.80;;;41.30;;
67640;SDS011;54434;50.096;20.082;2024-01-30T07:39:48;98.00;;;39.30;;
67640;SDS011;54434;50.096;20.082;2024-01-30T07:42:45;95.80;;;40.00;;
67640;SDS011;54434;50.096;20.082;2024-01-30T07:45:44;101.60;;;41.10;;
67640;SDS011;54434;50.096;20.082;2024-01-30T07:48:38;108.20;;;42.60;;
67640;SDS011;54434;50.096;20.082;2024-01-30T07:51:32;125.70;;;46.50;;
67640;SDS011;54434;50.096;20.082;2024-01-30T07:54:26;133.40;;;52.60;;
67640;SDS011;54434;50.096;20.082;2024-01-30T07:57:28;128.10;;;50.40;;
67640;SDS011;54434;50.096;20.082;2024-01-30T08:00:22;119.80;;;49.50;;
67640;SDS011;54434;50.096;20.082;2024-01-30T08:03:17;100.00;;;47.90;;
67640;SDS011;54434;50.096;20.082;2024-01-30T08:06:11;88.10;;;42.00;;
67640;SDS011;54434;50.096;20.082;2024-01-30T08:09:05;83.80;;;40.90;;
67640;SDS011;54434;50.096;20.082;2024-01-30T08:12:00;74.80;;;38.00;;
67640;SDS011;54434;50.096;20.082;2024-01-30T08:14:54;74.60;;;37.20;;
67640;SDS011;54434;50.096;20.082;2024-01-30T08:17:49;70.60;;;34.20;;
67640;SDS011;54434;50.096;20.082;2024-01-30T08:20:47;70.00;;;34.00;;
67640;SDS011;54434;50.096;20.082;2024-01-30T08:23:41;70.50;;;33.60;;
67640;SDS011;54434;50.096;20.082;2024-01-30T08:26:37;67.80;;;33.60;;
67640;SDS011;54434;50.096;20.082;2024-01-30T08:29:30;76.30;;;36.30;;
67640;SDS011;54434;50.096;20.082;2024-01-30T08:32:25;67.50;;;34.30;;
67640;SDS011;54434;50.096;20.082;2024-01-30T08:35:20;73.60;;;35.90;;
67640;SDS011;54434;50.096;20.082;2024-01-30T08:38:14;74.90;;;36.40;;
67640;SDS011;54434;50.096;20.082;2024-01-30T08:41:09;73.30;;;36.20;;
67640;SDS011;54434;50.096;20.082;2024-01-30T08:44:03;68.20;;;35.50;;
67640;SDS011;54434;50.096;20.082;2024-01-30T08:46:58;70.90;;;36.40;;
67640;SDS011;54434;50.096;20.082;2024-01-30T08:49:52;76.50;;;35.90;;
67640;SDS011;54434;50.096;20.082;2024-01-30T08:52:46;81.40;;;37.30;;
67640;SDS011;54434;50.096;20.082;2024-01-30T08:55:41;71.40;;;35.50;;
67640;SDS011;54434;50.096;20.082;2024-01-30T08:58:35;74.00;;;35.70;;
67640;SDS011;54434;50.096;20.082;2024-01-30T09:01:30;72.30;;;34.80;;
67640;SDS011;54434;50.096;20.082;2024-01-30T09:04:24;70.80;;;36.00;;
67640;SDS011;54434;50.096;20.082;2024-01-30T09:07:19;73.80;;;36.30;;
67640;SDS011;54434;50.096;20.082;2024-01-30T09:10:14;69.80;;;34.80;;
67640;SDS011;54434;50.096;20.082;2024-01-30T09:13:11;68.30;;;34.00;;
67640;SDS011;54434;50.096;20.082;2024-01-30T09:16:07;68.00;;;33.30;;
67640;SDS011;54434;50.096;20.082;2024-01-30T09:19:01;72.60;;;34.70;;
67640;SDS011;54434;50.096;20.082;2024-01-30T09:21:56;63.80;;;33.60;;
67640;SDS011;54434;50.096;20.082;2024-01-30T09:24:51;75.90;;;36.20;;
67640;SDS011;54434;50.096;20.082;2024-01-30T09:27:44;67.90;;;34.70;;
67640;SDS011;54434;50.096;20.082;2024-01-30T09:30:38;70.10;;;33.10;;
67640;SDS011;54434;50.096;20.082;2024-01-30T09:33:33;69.50;;;32.20;;
67640;SDS011;54434;50.096;20.082;2024-01-30T09:36:31;77.90;;;33.10;;
67640;SDS011;54434;50.096;20.082;2024-01-30T09:39:28;64.90;;;32.60;;
67640;SDS011;54434;50.096;20.082;2024-01-30T09:42:32;65.10;;;32.40;;
67640;SDS011;54434;50.096;20.082;2024-01-30T09:45:28;69.50;;;31.40;;
67640;SDS011;54434;50.096;20.082;2024-01-30T09:48:25;65.60;;;30.50;;
67640;SDS011;54434;50.096;20.082;2024-01-30T09:51:20;63.10;;;32.30;;
67640;SDS011;54434;50.096;20.082;2024-01-30T09:54:17;61.00;;;30.90;;
67640;SDS011;54434;50.096;20.082;2024-01-30T09:57:12;68.20;;;33.40;;
67640;SDS011;54434;50.096;20.082;2024-01-30T10:00:08;75.50;;;34.00;;
67640;SDS011;54434;50.096;20.082;2024-01-30T10:03:05;67.10;;;32.50;;
67640;SDS011;54434;50.096;20.082;2024-01-30T10:06:00;64.60;;;31.90;;
67640;SDS011;54434;50.096;20.082;2024-01-30T10:08:55;72.40;;;32.80;;
67640;SDS011;54434;50.096;20.082;2024-01-30T10:11:50;63.20;;;32.10;;
67640;SDS011;54434;50.096;20.082;2024-01-30T10:14:45;80.70;;;34.60;;
67640;SDS011;54434;50.096;20.082;2024-01-30T10:17:40;70.50;;;32.50;;
67640;SDS011;54434;50.096;20.082;2024-01-30T10:20:35;63.60;;;31.50;;
67640;SDS011;54434;50.096;20.082;2024-01-30T10:23:30;74.90;;;33.30;;
67640;SDS011;54434;50.096;20.082;2024-01-30T10:26:26;60.90;;;31.80;;
67640;SDS011;54434;50.096;20.082;2024-01-30T10:29:24;60.80;;;29.60;;
67640;SDS011;54434;50.096;20.082;2024-01-30T10:32:19;55.60;;;29.20;;
67640;SDS011;54434;50.096;20.082;2024-01-30T10:35:14;52.20;;;27.60;;
67640;SDS011;54434;50.096;20.082;2024-01-30T10:38:10;57.20;;;27.60;;
67640;SDS011;54434;50.096;20.082;2024-01-30T10:41:09;48.80;;;24.30;;
67640;SDS011;54434;50.096;20.082;2024-01-30T10:44:10;54.50;;;25.20;;
67640;SDS011;54434;50.096;20.082;2024-01-30T10:47:09;49.70;;;25.50;;
67640;SDS011;54434;50.096;20.082;2024-01-30T10:50:09;50.00;;;25.50;;
67640;SDS011;54434;50.096;20.082;2024-01-30T10:53:05;55.80;;;25.80;;
67640;SDS011;54434;50.096;20.082;2024-01-30T10:56:01;51.20;;;25.60;;
67640;SDS011;54434;50.096;20.082;2024-01-30T10:58:57;54.30;;;26.40;;
67640;SDS011;54434;50.096;20.082;2024-01-30T11:01:52;47.40;;;25.20;;
67640;SDS011;54434;50.096;20.082;2024-01-30T11:04:47;54.00;;;26.10;;
67640;SDS011;54434;50.096;20.082;2024-01-30T11:07:41;47.80;;;24.40;;
67640;SDS011;54434;50.096;20.082;2024-01-30T11:10:45;52.10;;;25.00;;
67640;SDS011;54434;50.096;20.082;2024-01-30T11:13:40;52.40;;;25.30;;
67640;SDS011;54434;50.096;20.082;2024-01-30T11:16:36;47.90;;;25.30;;
67640;SDS011;54434;50.096;20.082;2024-01-30T11:19:37;50.30;;;25.70;;
67640;SDS011;54434;50.096;20.082;2024-01-30T11:22:33;51.20;;;24.40;;
67640;SDS011;54434;50.096;20.082;2024-01-30T11:25:28;52.90;;;25.10;;
67640;SDS011;54434;50.096;20.082;2024-01-30T11:28:24;53.70;;;27.60;;
67640;SDS011;54434;50.096;20.082;2024-01-30T11:31:23;56.50;;;26.90;;
67640;SDS011;54434;50.096;20.082;2024-01-30T11:34:18;59.20;;;26.40;;
67640;SDS011;54434;50.096;20.082;2024-01-30T11:37:14;60.50;;;28.20;;
67640;SDS011;54434;50.096;20.082;2024-01-30T11:40:12;57.90;;;28.70;;
67640;SDS011;54434;50.096;20.082;2024-01-30T11:43:07;59.70;;;31.10;;
67640;SDS011;54434;50.096;20.082;2024-01-30T11:46:02;62.00;;;31.80;;
67640;SDS011;54434;50.096;20.082;2024-01-30T11:48:57;61.20;;;32.10;;
67640;SDS011;54434;50.096;20.082;2024-01-30T11:51:52;63.60;;;32.00;;
67640;SDS011;54434;50.096;20.082;2024-01-30T11:54:46;66.00;;;32.30;;
67640;SDS011;54434;50.096;20.082;2024-01-30T11:57:41;65.50;;;32.80;;
67640;SDS011;54434;50.096;20.082;2024-01-30T12:00:38;67.20;;;33.00;;
67640;SDS011;54434;50.096;20.082;2024-01-30T12:03:32;68.70;;;32.90;;
67640;SDS011;54434;50.096;20.082;2024-01-30T12:06:27;68.20;;;33.90;;
67640;SDS011;54434;50.096;20.082;2024-01-30T12:09:21;75.10;;;34.60;;
67640;SDS011;54434;50.096;20.082;2024-01-30T12:12:16;71.90;;;34.90;;
67640;SDS011;54434;50.096;20.082;2024-01-30T12:15:11;69.30;;;33.60;;
67640;SDS011;54434;50.096;20.082;2024-01-30T12:18:09;69.20;;;33.30;;
67640;SDS011;54434;50.096;20.082;2024-01-30T12:21:04;70.90;;;32.30;;
67640;SDS011;54434;50.096;20.082;2024-01-30T12:24:00;62.50;;;32.60;;
67640;SDS011;54434;50.096;20.082;2024-01-30T12:26:58;65.40;;;29.90;;
67640;SDS011;54434;50.096;20.082;2024-01-30T12:29:58;63.90;;;31.40;;
67640;SDS011;54434;50.096;20.082;2024-01-30T12:32:52;62.70;;;31.30;;
67640;SDS011;54434;50.096;20.082;2024-01-30T12:35:48;58.30;;;29.90;;
67640;SDS011;54434;50.096;20.082;2024-01-30T12:38:53;60.20;;;28.90;;
67640;SDS011;54434;50.096;20.082;2024-01-30T12:41:49;63.00;;;29.40;;
67640;SDS011;54434;50.096;20.082;2024-01-30T12:44:44;54.90;;;28.90;;
67640;SDS011;54434;50.096;20.082;2024-01-30T12:47:39;62.40;;;30.00;;
67640;SDS011;54434;50.096;20.082;2024-01-30T12:50:33;56.80;;;27.10;;
67640;SDS011;54434;50.096;20.082;2024-01-30T12:53:28;59.70;;;28.80;;
67640;SDS011;54434;50.096;20.082;2024-01-30T12:56:23;54.40;;;27.90;;
67640;SDS011;54434;50.096;20.082;2024-01-30T12:59:17;58.10;;;28.80;;
67640;SDS011;54434;50.096;20.082;2024-01-30T13:02:11;59.80;;;28.70;;
67640;SDS011;54434;50.096;20.082;2024-01-30T13:05:07;56.10;;;28.50;;
67640;SDS011;54434;50.096;20.082;2024-01-30T13:08:06;58.80;;;29.00;;
67640;SDS011;54434;50.096;20.082;2024-01-30T13:11:00;61.20;;;30.00;;
67640;SDS011;54434;50.096;20.082;2024-01-30T13:13:54;58.60;;;28.90;;
67640;SDS011;54434;50.096;20.082;2024-01-30T13:16:49;53.10;;;27.80;;
67640;SDS011;54434;50.096;20.082;2024-01-30T13:19:44;56.50;;;28.70;;
67640;SDS011;54434;50.096;20.082;2024-01-30T13:22:39;55.00;;;26.60;;
67640;SDS011;54434;50.096;20.082;2024-01-30T13:25:35;54.80;;;28.90;;
67640;SDS011;54434;50.096;20.082;2024-01-30T13:28:30;57.20;;;27.00;;
67640;SDS011;54434;50.096;20.082;2024-01-30T13:31:24;45.30;;;21.80;;
67640;SDS011;54434;50.096;20.082;2024-01-30T13:34:19;36.90;;;19.20;;
67640;SDS011;54434;50.096;20.082;2024-01-30T13:37:13;34.80;;;18.20;;
67640;SDS011;54434;50.096;20.082;2024-01-30T13:40:09;32.70;;;17.10;;
67640;SDS011;54434;50.096;20.082;2024-01-30T13:43:05;31.60;;;17.90;;
67640;SDS011;54434;50.096;20.082;2024-01-30T13:46:00;29.70;;;15.40;;
67640;SDS011;54434;50.096;20.082;2024-01-30T13:48:54;30.50;;;15.80;;
67640;SDS011;54434;50.096;20.082;2024-01-30T13:51:48;30.60;;;15.70;;
67640;SDS011;54434;50.096;20.082;2024-01-30T13:54:45;29.30;;;14.90;;
67640;SDS011;54434;50.096;20.082;2024-01-30T13:57:39;31.40;;;14.80;;
67640;SDS011;54434;50.096;20.082;2024-01-30T14:00:34;29.80;;;14.10;;
67640;SDS011;54434;50.096;20.082;2024-01-30T14:03:28;25.30;;;13.10;;
67640;SDS011;54434;50.096;20.082;2024-01-30T14:06:22;25.80;;;13.50;;
67640;SDS011;54434;50.096;20.082;2024-01-30T14:09:17;27.50;;;13.40;;
67640;SDS011;54434;50.096;20.082;2024-01-30T14:12:12;28.90;;;13.60;;
67640;SDS011;54434;50.096;20.082;2024-01-30T14:15:08;25.60;;;13.20;;
67640;SDS011;54434;50.096;20.082;2024-01-30T14:18:17;28.60;;;13.80;;
67640;SDS011;54434;50.096;20.082;2024-01-30T14:21:11;27.80;;;13.90;;
67640;SDS011;54434;50.096;20.082;2024-01-30T14:24:06;26.40;;;13.60;;
67640;SDS011;54434;50.096;20.082;2024-01-30T14:27:00;29.00;;;14.10;;
67640;SDS011;54434;50.096;20.082;2024-01-30T14:29:55;25.30;;;12.90;;
67640;SDS011;54434;50.096;20.082;2024-01-30T14:32:49;24.60;;;12.80;;
67640;SDS011;54434;50.096;20.082;2024-01-30T14:35:43;26.00;;;13.40;;
67640;SDS011;54434;50.096;20.082;2024-01-30T14:38:38;25.60;;;12.50;;
67640;SDS011;54434;50.096;20.082;2024-01-30T14:41:33;23.80;;;12.50;;
67640;SDS011;54434;50.096;20.082;2024-01-30T14:44:27;23.80;;;12.00;;
67640;SDS011;54434;50.096;20.082;2024-01-30T14:47:21;23.80;;;12.80;;
67640;SDS011;54434;50.096;20.082;2024-01-30T14:50:16;24.80;;;13.10;;
67640;SDS011;54434;50.096;20.082;2024-01-30T14:53:10;26.10;;;12.70;;
67640;SDS011;54434;50.096;20.082;2024-01-30T14:56:06;27.50;;;13.50;;
67640;SDS011;54434;50.096;20.082;2024-01-30T14:59:00;25.70;;;12.60;;
67640;SDS011;54434;50.096;20.082;2024-01-30T15:01:54;25.60;;;13.00;;
67640;SDS011;54434;50.096;20.082;2024-01-30T15:04:49;25.30;;;12.80;;
67640;SDS011;54434;50.096;20.082;2024-01-30T15:07:43;24.50;;;12.70;;
67640;SDS011;54434;50.096;20.082;2024-01-30T15:10:38;23.30;;;12.40;;
67640;SDS011;54434;50.096;20.082;2024-01-30T15:13:33;25.60;;;12.60;;
67640;SDS011;54434;50.096;20.082;2024-01-30T15:16:27;24.80;;;12.90;;
67640;SDS011;54434;50.096;20.082;2024-01-30T15:19:22;26.40;;;13.40;;
67640;SDS011;54434;50.096;20.082;2024-01-30T15:22:16;24.30;;;13.10;;
67640;SDS011;54434;50.096;20.082;2024-01-30T15:25:11;24.00;;;13.20;;
67640;SDS011;54434;50.096;20.082;2024-01-30T15:28:05;28.20;;;13.00;;
67640;SDS011;54434;50.096;20.082;2024-01-30T15:31:05;28.70;;;14.10;;
67640;SDS011;54434;50.096;20.082;2024-01-30T15:33:59;27.10;;;12.90;;
67640;SDS011;54434;50.096;20.082;2024-01-30T15:36:54;26.90;;;13.40;;
67640;SDS011;54434;50.096;20.082;2024-01-30T15:39:48;25.70;;;13.00;;
67640;SDS011;54434;50.096;20.082;2024-01-30T15:42:42;26.70;;;13.00;;
67640;SDS011;54434;50.096;20.082;2024-01-30T15:45:36;27.80;;;13.40;;
67640;SDS011;54434;50.096;20.082;2024-01-30T15:48:30;25.40;;;13.10;;
67640;SDS011;54434;50.096;20.082;2024-01-30T15:51:24;27.40;;;13.30;;
67640;SDS011;54434;50.096;20.082;2024-01-30T15:54:20;25.20;;;12.50;;
67640;SDS011;54434;50.096;20.082;2024-01-30T15:57:14;27.70;;;13.70;;
67640;SDS011;54434;50.096;20.082;2024-01-30T16:00:11;26.80;;;13.40;;
67640;SDS011;54434;50.096;20.082;2024-01-30T16:03:07;26.00;;;13.40;;
67640;SDS011;54434;50.096;20.082;2024-01-30T16:06:02;28.40;;;12.50;;
67640;SDS011;54434;50.096;20.082;2024-01-30T16:08:57;29.40;;;13.40;;
67640;SDS011;54434;50.096;20.082;2024-01-30T16:11:51;41.90;;;18.50;;
67640;SDS011;54434;50.096;20.082;2024-01-30T16:14:44;24.90;;;12.80;;
67640;SDS011;54434;50.096;20.082;2024-01-30T16:17:39;28.60;;;13.80;;
67640;SDS011;54434;50.096;20.082;2024-01-30T16:20:36;26.30;;;12.60;;
67640;SDS011;54434;50.096;20.082;2024-01-30T16:23:33;24.50;;;12.70;;
67640;SDS011;54434;50.096;20.082;2024-01-30T16:26:27;23.70;;;12.50;;
67640;SDS011;54434;50.096;20.082;2024-01-30T16:29:22;29.10;;;13.00;;
67640;SDS011;54434;50.096;20.082;2024-01-30T16:32:16;30.80;;;13.10;;
67640;SDS011;54434;50.096;20.082;2024-01-30T16:35:11;29.20;;;13.60;;
67640;SDS011;54434;50.096;20.082;2024-01-30T16:38:07;30.40;;;13.30;;
67640;SDS011;54434;50.096;20.082;2024-01-30T16:41:01;28.30;;;12.80;;
67640;SDS011;54434;50.096;20.082;2024-01-30T16:43:56;28.80;;;13.70;;
67640;SDS011;54434;50.096;20.082;2024-01-30T16:46:50;30.20;;;13.40;;